Time;durP1;ratioP1;P1;durP2;ratioP2;P2;SDS_P1;SDS_P2;PMS_P1;PMS_P2;Temp;Humidity;BMP_temperature;BMP_pressure;BME280_temperature;BME280_humidity;BME280_pressure;Samples;Min_cycle;Max_cycle;Signal;HPM_P1;HPM_P2
2022/07/14 00:01:36;;;;;;;10.55;5.90;;;;;;;20.19;81.75;101264.16;4983700;28;20090;-82
2022/07/14 00:04:03;;;;;;;10.40;6.35;;;;;;;20.09;81.81;101279.66;4980722;28;20189;-83
2022/07/14 00:06:31;;;;;;;13.48;5.97;;;;;;;20.07;82.08;101276.41;4983537;28;20538;-82
2022/07/14 00:08:58;;;;;;;11.18;6.13;;;;;;;20.15;81.74;101269.06;4996682;28;20042;-83
2022/07/14 00:11:25;;;;;;;11.05;6.07;;;;;;;20.14;81.64;101272.72;5005133;28;20506;-84
2022/07/14 00:13:51;;;;;;;8.55;5.75;;;;;;;20.09;82.62;101285.81;5002094;28;20106;-83
2022/07/14 00:16:19;;;;;;;10.52;5.82;;;;;;;20.06;82.59;101283.56;5001219;28;20133;-82
2022/07/14 00:18:45;;;;;;;13.38;6.30;;;;;;;19.85;84.05;101286.34;5001945;28;20055;-83
2022/07/14 00:21:13;;;;;;;15.07;6.30;;;;;;;19.85;84.65;101294.31;5003746;28;20204;-83
2022/07/14 00:23:43;;;;;;;10.20;6.20;;;;;;;19.93;85.31;101291.50;4987737;28;20051;-83
2022/07/14 00:26:10;;;;;;;9.48;6.20;;;;;;;19.85;84.38;101284.53;4987040;28;20050;-84
2022/07/14 00:28:36;;;;;;;13.32;6.18;;;;;;;19.78;85.07;101294.34;4986655;28;20059;-83
2022/07/14 00:31:08;;;;;;;15.80;6.53;;;;;;;19.77;84.75;101292.69;4988970;28;20074;-83
2022/07/14 00:33:35;;;;;;;10.73;5.87;;;;;;;19.70;84.21;101275.94;5005054;28;20042;-83
2022/07/14 00:38:31;;;;;;;15.23;6.03;;;;;;;19.73;84.14;101283.50;5032472;28;20061;-76
2022/07/14 00:41:00;;;;;;;15.20;6.05;;;;;;;19.63;84.09;101284.88;5034336;28;20099;-76
2022/07/14 00:43:27;;;;;;;12.00;5.80;;;;;;;19.61;84.39;101286.91;5034522;28;20115;-77
2022/07/14 00:45:53;;;;;;;12.07;6.50;;;;;;;19.58;84.37;101287.31;5034438;28;20132;-77
2022/07/14 00:48:20;;;;;;;13.90;6.32;;;;;;;19.60;84.45;101279.97;5034264;28;20128;-76
2022/07/14 00:50:48;;;;;;;13.15;5.75;;;;;;;19.55;84.51;101286.69;5034483;28;20057;-76
2022/07/14 00:53:14;;;;;;;11.52;6.28;;;;;;;19.52;84.72;101279.13;5025167;28;20502;-76
2022/07/14 00:55:43;;;;;;;11.35;5.80;;;;;;;19.52;84.83;101281.78;5017735;28;20078;-76
2022/07/14 00:58:12;;;;;;;13.60;5.88;;;;;;;19.59;84.64;101288.94;5020047;28;20097;-77
2022/07/14 01:00:39;;;;;;;12.18;5.93;;;;;;;19.55;84.96;101278.72;5019359;28;20057;-76
2022/07/14 01:03:06;;;;;;;11.10;5.68;;;;;;;19.58;84.72;101274.88;5015338;28;20081;-76
2022/07/14 01:05:33;;;;;;;10.35;5.88;;;;;;;19.46;84.83;101261.31;5014615;28;20132;-75
2022/07/14 01:08:00;;;;;;;13.15;6.95;;;;;;;19.33;85.27;101263.94;4999449;28;20121;-77
2022/07/14 01:10:27;;;;;;;13.18;6.53;;;;;;;19.45;85.15;101277.44;4994883;28;20058;-77
2022/07/14 01:12:55;;;;;;;12.93;6.63;;;;;;;19.41;84.89;101270.88;4995190;28;20062;-75
2022/07/14 01:15:23;;;;;;;13.10;6.13;;;;;;;19.40;85.14;101283.31;4994843;28;20061;-76
2022/07/14 01:17:49;;;;;;;11.30;6.35;;;;;;;19.41;85.09;101279.66;4994734;28;20228;-75
2022/07/14 01:20:18;;;;;;;17.17;6.68;;;;;;;19.42;85.11;101281.28;4994530;28;20077;-77
2022/07/14 01:22:47;;;;;;;12.70;5.93;;;;;;;19.35;85.41;101283.13;4995691;28;20125;-76
2022/07/14 01:25:15;;;;;;;17.90;6.75;;;;;;;19.32;85.65;101282.72;5007719;28;20137;-77
2022/07/14 01:27:41;;;;;;;17.60;7.53;;;;;;;19.27;85.52;101270.03;5013731;28;20060;-77
2022/07/14 01:30:09;;;;;;;16.42;7.32;;;;;;;19.30;85.96;101272.28;5013609;28;20485;-77
2022/07/14 01:32:36;;;;;;;10.77;6.05;;;;;;;19.34;85.47;101275.38;5012533;28;20105;-77
2022/07/14 01:35:03;;;;;;;18.30;6.65;;;;;;;19.23;85.91;101259.00;5013717;28;20133;-76
2022/07/14 01:37:29;;;;;;;16.13;6.50;;;;;;;19.22;85.98;101261.84;5012010;28;20050;-76
2022/07/14 01:39:57;;;;;;;21.92;6.88;;;;;;;19.26;85.98;101273.69;5013271;28;20112;-77
2022/07/14 01:42:24;;;;;;;14.35;6.32;;;;;;;19.19;86.35;101283.47;5013417;28;20137;-76
2022/07/14 01:44:51;;;;;;;17.48;6.57;;;;;;;19.13;86.76;101300.97;5011610;28;20133;-77
2022/07/14 01:47:17;;;;;;;13.88;6.97;;;;;;;18.99;87.57;101296.59;4999580;28;20133;-76
2022/07/14 01:49:44;;;;;;;14.88;6.00;;;;;;;18.97;87.41;101293.31;4993903;28;20085;-77
2022/07/14 01:52:11;;;;;;;17.33;6.18;;;;;;;18.83;87.67;101284.47;4993792;28;20086;-77
2022/07/14 01:54:37;;;;;;;12.93;6.40;;;;;;;18.83;88.09;101295.09;4993584;28;20054;-78
2022/07/14 01:57:06;;;;;;;13.10;6.53;;;;;;;18.77;88.28;101290.56;4993854;28;20582;-78
2022/07/14 01:59:33;;;;;;;15.45;6.65;;;;;;;18.74;88.66;101284.81;4994704;28;20503;-78
2022/07/14 02:02:00;;;;;;;16.45;6.20;;;;;;;18.72;88.66;101298.28;5001319;28;20056;-78
2022/07/14 02:04:27;;;;;;;12.93;6.35;;;;;;;18.58;89.27;101280.59;5015425;28;20061;-80
2022/07/14 02:06:55;;;;;;;11.65;5.78;;;;;;;18.58;89.21;101286.72;5013980;28;20153;-79
2022/07/14 02:12:10;;;;;;;13.35;6.22;;;;;;;18.63;89.07;101283.53;5013395;28;20085;-78
2022/07/14 02:12:12;;;;;;;16.13;6.38;;;;;;;18.57;89.06;101285.06;5008833;28;20148;-79
2022/07/14 02:14:39;;;;;;;12.35;6.18;;;;;;;18.56;89.17;101274.66;4993577;28;20502;-79
2022/07/14 02:17:06;;;;;;;16.27;6.10;;;;;;;18.62;88.84;101273.09;4993628;28;20089;-78
2022/07/14 02:19:32;;;;;;;13.32;6.22;;;;;;;18.57;88.87;101268.34;4993212;28;20133;-78
2022/07/14 02:21:59;;;;;;;14.98;6.00;;;;;;;18.54;88.97;101264.25;5011143;28;20132;-78
2022/07/14 02:24:25;;;;;;;16.65;6.47;;;;;;;18.54;88.73;101252.84;5012640;28;20096;-78
2022/07/14 02:26:52;;;;;;;16.25;6.30;;;;;;;18.62;88.74;101260.69;5012737;28;20081;-78
2022/07/14 02:29:21;;;;;;;16.08;6.35;;;;;;;18.56;88.69;101256.94;5012509;28;20541;-79
2022/07/14 02:31:48;;;;;;;19.25;6.72;;;;;;;18.52;88.48;101258.31;5012857;28;20085;-78
2022/07/14 02:34:16;;;;;;;17.92;7.85;;;;;;;18.49;88.69;101249.94;4995073;28;20427;-78
2022/07/14 02:36:43;;;;;;;16.60;7.00;;;;;;;18.51;88.53;101258.50;4993105;28;20085;-78
2022/07/14 02:39:09;;;;;;;12.75;6.13;;;;;;;18.47;88.76;101259.91;4992743;28;20138;-78
2022/07/14 02:41:36;;;;;;;16.00;6.70;;;;;;;18.53;88.54;101241.41;5002969;28;20141;-78
2022/07/14 02:44:03;;;;;;;20.85;7.43;;;;;;;18.49;88.81;101237.50;5012299;28;20128;-78
2022/07/14 02:46:31;;;;;;;16.95;6.65;;;;;;;18.50;88.69;101254.22;5008999;28;20092;-80
2022/07/14 02:48:58;;;;;;;16.42;6.55;;;;;;;18.53;88.52;101261.78;4992635;28;20108;-79
2022/07/14 02:51:24;;;;;;;17.23;6.57;;;;;;;18.62;88.32;101257.19;4993200;28;20089;-77
2022/07/14 02:53:51;;;;;;;18.35;6.43;;;;;;;18.48;88.53;101265.03;4993091;28;20082;-77
2022/07/14 02:56:18;;;;;;;14.80;6.68;;;;;;;18.39;89.35;101270.69;4992493;28;20133;-77
2022/07/14 02:58:45;;;;;;;16.83;6.72;;;;;;;18.40;89.11;101267.00;4995720;28;20073;-78
2022/07/14 03:01:11;;;;;;;15.75;6.45;;;;;;;18.36;89.32;101271.06;5011989;28;20050;-76
2022/07/14 03:03:39;;;;;;;12.77;6.70;;;;;;;18.27;89.63;101264.25;5012563;28;20054;-78
2022/07/14 03:06:11;;;;;;;13.18;6.20;;;;;;;18.10;90.31;101274.28;5012301;28;20459;-77
2022/07/14 03:08:38;;;;;;;16.70;6.40;;;;;;;18.13;90.33;101272.06;5011549;28;20514;-77
2022/07/14 03:11:05;;;;;;;15.52;7.00;;;;;;;18.05;90.75;101274.84;5011916;28;20076;-77
2022/07/14 03:13:31;;;;;;;19.13;6.20;;;;;;;18.07;90.65;101270.19;5011743;28;20471;-77
2022/07/14 03:15:59;;;;;;;16.92;6.35;;;;;;;18.10;90.36;101264.50;5010090;28;20549;-77
2022/07/14 03:18:26;;;;;;;20.48;6.82;;;;;;;18.05;90.39;101268.72;5011550;28;20100;-78
2022/07/14 03:20:54;;;;;;;16.88;6.75;;;;;;;18.14;90.52;101255.16;5011920;28;20050;-77
2022/07/14 03:23:22;;;;;;;17.77;7.10;;;;;;;18.11;90.27;101255.56;5011833;28;20053;-77
2022/07/14 03:25:49;;;;;;;19.92;7.35;;;;;;;18.09;89.95;101254.91;5012041;28;20068;-77
2022/07/14 03:28:16;;;;;;;15.50;7.65;;;;;;;18.02;89.93;101254.03;5011361;28;20050;-78
2022/07/14 03:30:43;;;;;;;22.67;7.25;;;;;;;17.98;90.18;101255.41;5011645;28;20050;-77
2022/07/14 03:33:10;;;;;;;17.88;6.45;;;;;;;17.98;90.11;101250.13;5011641;28;20045;-77
2022/07/14 03:35:38;;;;;;;20.40;7.05;;;;;;;17.98;89.94;101249.31;5009837;28;20046;-77
2022/07/14 03:38:06;;;;;;;17.23;6.63;;;;;;;17.96;90.30;101260.09;5010908;28;20140;-77
2022/07/14 03:40:34;;;;;;;17.25;6.57;;;;;;;17.95;90.07;101252.34;5011257;28;20442;-78
2022/07/14 03:43:01;;;;;;;20.75;7.15;;;;;;;17.96;90.23;101243.41;5011979;28;20054;-77
2022/07/14 03:45:28;;;;;;;19.10;6.82;;;;;;;18.03;89.80;101255.66;5011354;28;20061;-78
2022/07/14 03:47:55;;;;;;;17.38;6.55;;;;;;;17.87;90.10;101253.28;5011046;28;20425;-78
2022/07/14 03:50:22;;;;;;;19.13;7.22;;;;;;;17.90;90.04;101253.75;5011677;28;20089;-77
2022/07/14 03:52:49;;;;;;;13.80;6.25;;;;;;;17.90;90.09;101255.56;5011701;28;20132;-77
2022/07/14 03:55:18;;;;;;;17.30;6.53;;;;;;;17.96;90.40;101251.34;5010562;28;20085;-78
2022/07/14 03:57:44;;;;;;;20.70;7.00;;;;;;;17.83;90.39;101241.44;5010926;28;20046;-79
2022/07/14 04:00:12;;;;;;;17.90;7.22;;;;;;;17.80;90.68;101245.28;5011508;28;20477;-77
2022/07/14 04:02:38;;;;;;;16.13;6.30;;;;;;;17.81;90.78;101246.09;5011827;28;20085;-78
2022/07/14 04:05:06;;;;;;;17.33;6.90;;;;;;;17.78;90.59;101251.78;5011904;28;20486;-78
2022/07/14 04:07:32;;;;;;;14.82;6.70;;;;;;;17.75;90.65;101252.97;5011196;28;20108;-78
2022/07/14 04:09:59;;;;;;;15.00;6.50;;;;;;;17.73;91.01;101260.28;5011095;28;20045;-78
2022/07/14 04:12:27;;;;;;;18.63;6.85;;;;;;;17.76;90.95;101251.97;5011339;28;20521;-79
2022/07/14 04:14:54;;;;;;;18.58;7.22;;;;;;;17.75;91.18;101252.16;5011123;28;20052;-77
2022/07/14 04:17:20;;;;;;;17.70;8.50;;;;;;;17.81;91.18;101240.81;4997762;28;20164;-77
2022/07/14 04:19:47;;;;;;;18.02;7.55;;;;;;;17.87;90.84;101251.47;4992199;28;20134;-77
2022/07/14 04:22:14;;;;;;;22.42;6.78;;;;;;;17.78;91.17;101234.06;4992120;28;20085;-77
2022/07/14 04:24:41;;;;;;;16.90;6.47;;;;;;;17.75;91.20;101229.16;4997799;28;20052;-77
2022/07/14 04:27:08;;;;;;;19.83;6.93;;;;;;;17.73;91.28;101233.00;5011595;28;20050;-77
2022/07/14 04:29:36;;;;;;;17.27;6.68;;;;;;;17.76;91.10;101251.13;5007033;28;20093;-77
2022/07/14 04:32:03;;;;;;;20.27;7.05;;;;;;;17.64;91.47;101247.31;4995780;28;20050;-76
2022/07/14 04:34:30;;;;;;;22.42;7.18;;;;;;;17.57;91.88;101248.06;4998940;28;20050;-79
2022/07/14 04:36:57;;;;;;;20.88;7.32;;;;;;;17.49;92.48;101258.75;4997560;28;20120;-78
2022/07/14 04:39:23;;;;;;;15.05;6.22;;;;;;;17.55;92.33;101258.00;4997836;28;20085;-79
2022/07/14 04:41:50;;;;;;;19.80;7.38;;;;;;;17.56;92.31;101257.00;5003180;28;20132;-79
2022/07/14 04:44:17;;;;;;;16.67;7.15;;;;;;;17.53;92.38;101249.44;5011511;28;20116;-77
2022/07/14 04:46:45;;;;;;;15.57;7.35;;;;;;;17.61;92.24;101256.44;5009620;28;20526;-77
2022/07/14 04:52:04;;;;;;;18.25;6.78;;;;;;;17.50;93.11;101265.69;5011211;28;20056;-77
2022/07/14 04:54:32;;;;;;;16.25;6.72;;;;;;;17.61;92.70;101266.19;5010655;28;20099;-77
2022/07/14 04:56:59;;;;;;;18.20;7.07;;;;;;;17.55;92.72;101268.59;5011310;28;20053;-77
2022/07/14 04:59:26;;;;;;;16.13;6.88;;;;;;;17.65;92.61;101264.81;5011194;28;20103;-77
2022/07/14 05:01:55;;;;;;;18.38;9.07;;;;;;;17.73;92.04;101262.91;5011749;28;20529;-78
2022/07/14 05:04:22;;;;;;;19.02;7.35;;;;;;;17.87;91.52;101261.25;5011919;28;20058;-78
2022/07/14 05:06:50;;;;;;;17.20;6.55;;;;;;;17.92;91.28;101263.31;5012711;28;20074;-77
2022/07/14 05:09:18;;;;;;;15.82;7.05;;;;;;;17.99;91.04;101265.00;5015106;28;20050;-77
2022/07/14 05:11:45;;;;;;;19.15;7.03;;;;;;;18.09;90.34;101264.69;5015281;28;20085;-77
2022/07/14 05:14:12;;;;;;;15.50;6.57;;;;;;;18.00;90.51;101255.22;5015579;28;20136;-77
2022/07/14 05:16:39;;;;;;;17.63;7.10;;;;;;;18.07;90.47;101256.13;5016003;28;20474;-78
2022/07/14 05:19:07;;;;;;;19.77;6.68;;;;;;;18.20;90.05;101261.53;5012724;28;20046;-78
2022/07/14 05:21:34;;;;;;;18.00;7.10;;;;;;;18.29;89.98;101264.88;5009014;28;20054;-82
2022/07/14 05:24:01;;;;;;;18.67;6.85;;;;;;;18.39;89.54;101265.38;5004854;28;20060;-78
2022/07/14 05:26:27;;;;;;;21.65;7.25;;;;;;;18.39;89.44;101257.44;4995161;28;20061;-78
2022/07/14 05:28:54;;;;;;;15.52;7.15;;;;;;;18.42;89.06;101252.56;4994733;28;20062;-78
2022/07/14 05:31:21;;;;;;;21.35;7.38;;;;;;;18.55;88.59;101254.47;4995042;28;20137;-77
2022/07/14 05:33:48;;;;;;;12.82;6.40;;;;;;;18.77;87.57;101253.44;4995749;28;20085;-77
2022/07/14 05:36:16;;;;;;;22.00;6.90;;;;;;;19.06;86.55;101259.50;4995231;28;20052;-76
2022/07/14 05:38:43;;;;;;;17.33;7.40;;;;;;;19.25;85.33;101258.78;4994166;28;20054;-77
2022/07/14 05:41:10;;;;;;;20.92;7.60;;;;;;;19.38;84.33;101266.78;4994206;28;20054;-78
2022/07/14 05:43:37;;;;;;;18.10;6.90;;;;;;;19.28;84.22;101261.06;4995232;28;20431;-78
2022/07/14 05:46:07;;;;;;;22.63;7.85;;;;;;;19.22;84.17;101251.22;4994162;28;20097;-80
2022/07/14 05:48:37;;;;;;;18.60;7.47;;;;;;;19.13;84.85;101257.72;4993904;28;20532;-77
2022/07/14 05:51:05;;;;;;;22.98;8.18;;;;;;;19.04;84.86;101253.56;4996496;28;20078;-79
2022/07/14 05:53:33;;;;;;;16.20;7.50;;;;;;;18.82;85.71;101255.50;4997366;28;20050;-79
2022/07/14 05:56:03;;;;;;;17.83;6.60;;;;;;;18.89;86.49;101261.69;4998054;28;20238;-78
2022/07/14 05:58:30;;;;;;;24.38;7.90;;;;;;;18.97;85.71;101266.81;4998757;28;20444;-79
2022/07/14 06:00:56;;;;;;;18.92;7.10;;;;;;;19.10;85.17;101274.00;4997614;28;20113;-80
2022/07/14 06:03:23;;;;;;;24.48;7.57;;;;;;;19.06;84.83;101280.72;5002833;28;20477;-80
2022/07/14 06:05:49;;;;;;;19.35;7.55;;;;;;;19.18;84.78;101282.63;5031681;28;20045;-81
2022/07/14 06:08:19;;;;;;;16.60;7.55;;;;;;;19.20;84.28;101266.53;5028546;28;20053;-82
2022/07/14 06:10:47;;;;;;;20.33;7.05;;;;;;;19.16;84.63;101267.94;5024186;28;20489;-80
2022/07/14 06:13:14;;;;;;;17.48;6.80;;;;;;;19.16;84.55;101274.06;5015522;28;20056;-80
2022/07/14 06:15:40;;;;;;;23.77;7.53;;;;;;;19.10;84.50;101268.72;5017270;28;20037;-79
2022/07/14 06:18:10;;;;;;;15.80;7.15;;;;;;;18.99;84.91;101261.31;5014475;28;20050;-80
2022/07/14 06:20:36;;;;;;;19.48;7.70;;;;;;;18.96;85.23;101261.69;5013233;28;20217;-79
2022/07/14 06:23:03;;;;;;;20.02;7.45;;;;;;;19.05;85.11;101268.47;5014269;28;20533;-80
2022/07/14 06:25:29;;;;;;;20.38;7.55;;;;;;;18.98;85.17;101268.44;5013778;28;20045;-83
2022/07/14 06:27:57;;;;;;;19.35;6.95;;;;;;;19.11;84.83;101259.75;5005267;28;20050;-78
2022/07/14 06:30:24;;;;;;;23.23;7.72;;;;;;;19.15;84.56;101261.81;4996861;28;20054;-76
2022/07/14 06:32:51;;;;;;;19.25;7.43;;;;;;;19.22;84.93;101261.84;4996591;28;20078;-77
2022/07/14 06:35:17;;;;;;;18.67;6.97;;;;;;;19.33;84.05;101269.25;5010377;28;20129;-79
2022/07/14 06:38:28;;;;;;;17.95;7.25;;;;;;;19.17;83.91;101253.66;5028086;23;20073;-84
2022/07/14 06:41:39;;;;;;;19.88;7.93;;;;;;;19.06;84.30;101259.50;4974764;28;20053;-84
2022/07/14 06:47:49;;;;;;;19.25;7.70;;;;;;;19.66;83.64;101276.53;5017428;28;20068;-85
2022/07/14 06:50:30;;;;;;;21.98;7.75;;;;;;;20.14;80.74;101263.94;5012173;28;20103;-84
2022/07/14 06:56:16;;;;;;;18.25;7.00;;;;;;;19.93;80.76;101262.28;5001407;28;20046;-83
2022/07/14 07:12:07;;;;;;;17.65;7.10;;;;;;;20.61;77.42;101246.16;4967864;28;20558;-84
2022/07/14 07:18:01;;;;;;;24.58;8.07;;;;;;;20.91;75.77;101241.19;5005636;28;20061;-81
2022/07/14 07:20:30;;;;;;;24.88;7.80;;;;;;;21.16;74.99;101240.28;5008540;28;20034;-82
2022/07/14 07:23:09;;;;;;;22.08;7.53;;;;;;;21.37;73.78;101246.34;5009573;28;20111;-84
2022/07/14 07:29:09;;;;;;;16.42;6.25;;;;;;;22.21;71.07;101245.25;5004367;28;20062;-80
2022/07/14 07:32:29;;;;;;;22.00;7.40;;;;;;;22.08;70.98;101223.00;4999508;28;20054;-82
2022/07/14 07:37:50;;;;;;;20.60;7.38;;;;;;;22.84;69.05;101249.38;5007094;28;20046;-82
2022/07/14 07:40:54;;;;;;;;;;;;;;;;;;;;;
2022/07/14 07:43:31;;;;;;;16.00;6.38;;;;;;;22.65;68.52;101231.72;4983922;28;20149;-82
2022/07/14 07:49:07;;;;;;;25.65;6.50;;;;;;;24.42;62.87;101240.22;5019859;28;20092;-82
2022/07/14 07:54:33;;;;;;;16.20;6.22;;;;;;;24.31;61.84;101208.91;5010149;28;20044;-81
2022/07/14 07:57:12;;;;;;;15.13;6.35;;;;;;;24.40;60.87;101220.91;5022387;28;20050;-81
2022/07/14 07:59:52;;;;;;;18.30;5.60;;;;;;;23.74;62.10;101208.59;5022588;28;20422;-82
2022/07/14 08:02:48;;;;;;;20.70;6.38;;;;;;;22.60;65.22;101207.53;5020699;28;20088;-81
2022/07/14 08:05:17;;;;;;;18.17;5.75;;;;;;;22.83;64.33;101226.38;5018742;28;20053;-80
2022/07/14 08:23:39;;;;;;;12.43;4.40;;;;;;;24.46;54.71;101187.88;5022273;28;20054;-83
2022/07/14 08:26:06;;;;;;;12.88;5.10;;;;;;;23.78;57.98;101181.19;5019884;28;20104;-83
2022/07/14 08:35:50;;;;;;;16.30;4.70;;;;;;;27.22;49.61;101184.94;5014068;28;20050;-82
2022/07/14 08:38:17;;;;;;;;;;;;;;;25.65;52.63;101180.03;5026216;23;20054;-78
2022/07/14 08:40:45;;;;;;;12.77;5.05;;;;;;;25.41;53.50;101179.34;5012274;28;20000;-82
2022/07/14 08:43:12;;;;;;;12.32;5.03;;;;;;;26.02;52.17;101178.50;5010151;28;20056;-79
2022/07/14 08:45:42;;;;;;;9.63;4.68;;;;;;;26.09;51.37;101172.97;5009990;28;20076;-79
2022/07/14 08:48:09;;;;;;;16.05;5.47;;;;;;;25.52;52.68;101158.91;4986525;28;20097;-80
2022/07/14 08:50:37;;;;;;;15.52;5.25;;;;;;;24.66;54.95;101166.06;4985827;28;20073;-81
2022/07/14 08:53:04;;;;;;;14.57;5.28;;;;;;;24.39;54.79;101157.75;4997268;28;20050;-81
2022/07/14 08:55:32;;;;;;;12.35;4.60;;;;;;;24.57;55.77;101171.00;4990576;28;20141;-81
2022/07/14 08:58:00;;;;;;;11.82;5.22;;;;;;;24.64;54.05;101163.63;4990689;28;20142;-81
2022/07/14 09:00:27;;;;;;;15.18;5.30;;;;;;;23.94;54.24;101147.63;4988683;28;20078;-80
2022/07/14 09:02:55;;;;;;;11.07;4.05;;;;;;;24.09;53.12;101158.69;4992698;28;20066;-80
2022/07/14 09:05:22;;;;;;;12.10;4.47;;;;;;;24.62;52.43;101163.03;4996557;28;20049;-79
2022/07/14 09:07:55;;;;;;;10.77;4.57;;;;;;;23.96;53.61;101153.56;4999497;28;20054;-81
2022/07/14 09:10:25;;;;;;;13.57;4.43;;;;;;;23.71;54.59;101158.28;4994888;28;20057;-82
2022/07/14 09:12:51;;;;;;;11.88;4.80;;;;;;;24.21;55.07;101165.88;4982381;28;20479;-79
2022/07/14 09:18:12;;;;;;;11.38;4.95;;;;;;;24.87;52.24;101160.09;4987718;28;20395;-78
2022/07/14 09:20:39;;;;;;;15.13;4.65;;;;;;;25.35;50.60;101166.91;4996111;28;20060;-79
2022/07/14 09:23:06;;;;;;;10.82;4.40;;;;;;;25.10;51.83;101152.00;4992243;28;20400;-80
2022/07/14 09:25:34;;;;;;;10.23;4.53;;;;;;;25.23;51.38;101156.25;4986841;28;20066;-79
2022/07/14 09:28:02;;;;;;;11.68;4.30;;;;;;;24.79;51.86;101150.56;4980617;28;20374;-78
2022/07/14 09:30:31;;;;;;;10.50;4.82;;;;;;;23.79;53.60;101152.59;4988517;28;20129;-77
2022/07/14 09:32:59;;;;;;;13.95;4.88;;;;;;;24.12;53.74;101165.41;4980904;28;20051;-80
2022/07/14 09:35:37;;;;;;;14.48;4.85;;;;;;;23.91;52.10;101153.44;4981167;28;20047;-81
2022/07/14 09:38:17;;;;;;;10.13;4.65;;;;;;;23.66;52.32;101155.47;4995307;28;20092;-80
2022/07/14 09:40:44;;;;;;;9.52;4.13;;;;;;;24.31;48.21;101156.25;4995521;28;20061;-79
2022/07/14 09:43:13;;;;;;;12.75;4.75;;;;;;;25.13;47.71;101177.47;4997396;28;20078;-79
2022/07/14 09:45:43;;;;;;;12.15;4.13;;;;;;;24.85;46.45;101170.22;4995111;28;20050;-80
2022/07/14 09:48:11;;;;;;;14.98;4.05;;;;;;;25.21;45.86;101169.06;4983621;28;20049;-79
2022/07/14 09:50:47;;;;;;;9.30;4.00;;;;;;;25.69;42.51;101165.91;5000106;28;20050;-79
2022/07/14 09:53:23;;;;;;;8.57;3.90;;;;;;;25.41;42.24;101164.09;4986610;28;20055;-78
2022/07/14 09:55:57;;;;;;;10.57;4.10;;;;;;;25.44;41.86;101162.78;4994454;28;20133;-77
2022/07/14 09:58:26;;;;;;;10.60;4.20;;;;;;;25.28;41.77;101159.03;4996665;28;20081;-77
2022/07/14 10:01:03;;;;;;;10.15;3.75;;;;;;;24.74;41.72;101158.50;4993964;28;20101;-77
2022/07/14 10:03:31;;;;;;;7.68;3.80;;;;;;;25.01;41.42;101168.69;4990965;28;20051;-77
2022/07/14 10:05:59;;;;;;;6.82;3.42;;;;;;;25.18;40.64;101172.22;4981441;28;20401;-77
2022/07/14 10:08:28;;;;;;;10.30;4.50;;;;;;;25.12;41.88;101170.50;4983791;28;20050;-79
2022/07/14 10:10:56;;;;;;;8.68;4.07;;;;;;;25.51;41.63;101174.16;5001269;28;20078;-78
2022/07/14 10:13:24;;;;;;;9.45;4.00;;;;;;;25.97;40.35;101173.06;4976927;28;20546;-79
2022/07/14 10:15:52;;;;;;;7.35;3.53;;;;;;;25.87;40.49;101172.91;4994485;28;20065;-79
2022/07/14 10:18:21;;;;;;;8.65;3.50;;;;;;;25.70;39.21;101172.91;4995861;28;20499;-80
2022/07/14 10:20:50;;;;;;;12.02;3.75;;;;;;;26.29;40.15;101170.59;4995760;28;20042;-80
2022/07/14 10:23:17;;;;;;;8.10;3.55;;;;;;;25.08;39.95;101150.59;4990968;28;20501;-77
2022/07/14 10:25:46;;;;;;;10.43;3.90;;;;;;;24.42;41.60;101149.25;4992959;28;20134;-79
2022/07/14 10:28:14;;;;;;;10.00;3.83;;;;;;;24.68;41.64;101164.78;4998342;28;20146;-78
2022/07/14 10:30:47;;;;;;;12.85;4.43;;;;;;;25.01;43.42;101158.81;5002454;28;20085;-77
2022/07/14 10:33:24;;;;;;;11.27;3.92;;;;;;;25.18;41.69;101164.19;4993143;28;20047;-79
2022/07/14 10:36:00;;;;;;;9.23;4.35;;;;;;;25.37;42.38;101151.41;4993326;28;20046;-78
2022/07/14 10:38:45;;;;;;;13.88;4.80;;;;;;;25.38;42.46;101151.16;4987421;28;20081;-77
2022/07/14 10:41:25;;;;;;;13.40;4.20;;;;;;;25.23;41.74;101150.88;4990052;28;20110;-77
2022/07/14 10:44:05;;;;;;;9.77;4.20;;;;;;;25.06;42.03;101152.69;5004985;28;20054;-78
2022/07/14 10:46:37;;;;;;;16.02;4.60;;;;;;;25.22;43.42;101148.44;5012778;28;20084;-78
2022/07/14 10:49:07;;;;;;;11.70;5.47;;;;;;;24.86;43.03;101146.94;4984269;28;20138;-77
2022/07/14 10:51:34;;;;;;;11.95;4.22;;;;;;;24.72;44.18;101141.84;4981468;28;20076;-77
2022/07/14 10:54:07;;;;;;;9.98;4.50;;;;;;;24.75;44.08;101146.75;4973772;28;20319;-77
2022/07/14 10:56:36;;;;;;;13.77;5.05;;;;;;;25.07;43.90;101135.59;5006998;28;20054;-77
2022/07/14 10:59:30;;;;;;;10.77;4.40;;;;;;;24.59;42.82;101138.63;4983005;28;20055;-79
2022/07/14 11:02:28;;;;;;;10.60;3.90;;;;;;;24.76;41.74;101139.53;4979691;28;20133;-78
2022/07/14 11:05:11;;;;;;;12.43;4.47;;;;;;;24.61;41.94;101137.34;4972802;28;20047;-78
2022/07/14 11:07:40;;;;;;;8.75;4.15;;;;;;;24.91;42.09;101147.03;4973230;28;20070;-78
2022/07/14 11:10:40;;;;;;;11.98;4.40;;;;;;;25.00;40.10;101137.63;4972877;28;20137;-78
2022/07/14 11:13:10;;;;;;;7.65;4.00;;;;;;;24.99;40.73;101138.66;4972802;28;20145;-77
2022/07/14 11:15:39;;;;;;;8.13;3.75;;;;;;;25.07;40.23;101139.06;4981698;28;20129;-75
2022/07/14 11:18:37;;;;;;;6.35;3.65;;;;;;;24.78;40.26;101124.03;4989446;28;20506;-79
2022/07/14 11:21:12;;;;;;;9.77;3.75;;;;;;;25.25;40.39;101132.72;4932280;29;20047;-79
2022/07/14 11:23:53;;;;;;;11.45;4.10;;;;;;;25.38;39.82;101137.78;4967405;28;20142;-78
2022/07/14 11:26:36;;;;;;;8.00;3.50;;;;;;;25.65;39.36;101140.66;4979357;28;20078;-78
2022/07/14 11:29:05;;;;;;;7.35;3.50;;;;;;;26.00;38.33;101158.34;4981272;28;20038;-79
2022/07/14 11:31:44;;;;;;;6.75;3.60;;;;;;;25.32;39.00;101148.63;4975705;28;20143;-78
2022/07/14 11:37:06;;;;;;;8.85;3.47;;;;;;;24.91;39.64;101131.78;4982197;28;20419;-79
2022/07/14 11:39:35;;;;;;;6.95;3.42;;;;;;;25.60;39.56;101145.09;4983704;28;20086;-79
2022/07/14 11:42:07;;;;;;;8.55;3.50;;;;;;;25.84;39.97;101143.09;4977695;28;20051;-79
2022/07/14 11:44:52;;;;;;;11.13;3.42;;;;;;;25.63;38.42;101148.09;4982021;28;20078;-78
2022/07/14 11:47:21;;;;;;;9.57;3.88;;;;;;;25.19;40.44;101139.03;4985665;28;20051;-78
2022/07/14 11:50:02;;;;;;;7.93;4.32;;;;;;;24.97;41.22;101140.78;4983278;28;20078;-79
2022/07/14 11:52:33;;;;;;;7.25;3.45;;;;;;;24.84;41.65;101146.38;4982270;28;20136;-77
2022/07/14 11:55:01;;;;;;;9.15;3.60;;;;;;;25.14;41.46;101152.31;4981047;28;20062;-78
2022/07/14 11:57:28;;;;;;;11.35;3.80;;;;;;;25.23;41.83;101150.88;4976260;28;20129;-78
2022/07/14 12:00:02;;;;;;;9.55;4.03;;;;;;;25.69;42.46;101152.50;4984630;28;20050;-79
2022/07/14 12:02:29;;;;;;;6.00;3.20;;;;;;;25.88;41.71;101149.59;4982041;28;20207;-79
2022/07/14 12:04:58;;;;;;;6.95;3.60;;;;;;;26.20;40.61;101139.06;4992824;28;20049;-77
2022/07/14 12:07:27;;;;;;;8.18;3.85;;;;;;;26.15;40.72;101136.31;5000915;28;20065;-78
2022/07/14 12:09:55;;;;;;;9.48;3.50;;;;;;;25.61;41.28;101130.63;4989623;28;20124;-78
2022/07/14 12:12:24;;;;;;;7.75;3.60;;;;;;;25.69;41.46;101138.31;4994842;28;20053;-78
2022/07/14 12:14:54;;;;;;;15.57;4.13;;;;;;;26.02;41.54;101130.22;4991518;28;20141;-80
2022/07/14 12:17:23;;;;;;;6.97;3.90;;;;;;;26.22;40.89;101126.22;5008128;28;20133;-80
2022/07/14 12:19:50;;;;;;;7.78;3.67;;;;;;;26.35;40.74;101128.56;5014907;28;20482;-78
2022/07/14 12:22:17;;;;;;;8.40;3.75;;;;;;;26.23;41.19;101130.53;5008123;28;20077;-78
2022/07/14 12:24:45;;;;;;;8.93;3.78;;;;;;;26.08;41.14;101118.50;5012093;28;20053;-78
2022/07/14 12:27:13;;;;;;;7.65;3.70;;;;;;;25.92;41.12;101116.69;5016363;28;20060;-79
2022/07/14 12:29:47;;;;;;;7.93;3.60;;;;;;;26.24;41.02;101122.22;5003204;28;20058;-79
2022/07/14 12:32:15;;;;;;;8.75;3.83;;;;;;;26.15;41.08;101123.72;4998061;28;20045;-78
2022/07/14 12:34:43;;;;;;;11.05;3.88;;;;;;;25.64;41.33;101106.88;5009133;28;20057;-78
2022/07/14 12:37:11;;;;;;;9.40;3.97;;;;;;;25.49;42.17;101106.63;5010837;28;20077;-79
2022/07/14 12:39:41;;;;;;;8.73;3.70;;;;;;;25.86;41.59;101116.84;5008367;28;20466;-78
2022/07/14 12:42:08;;;;;;;11.63;3.58;;;;;;;25.80;42.18;101118.66;5016380;28;20474;-78